sensor_id;sensor_type;location;lat;lon;timestamp;P1;durP1;ratioP1;P2;durP2;ratioP2
15673;SDS011;7937;48.090;16.212;2022-07-23T00:02:28;13.93;;;7.13;;
15673;SDS011;7937;48.090;16.212;2022-07-23T00:05:31;8.20;;;6.47;;
15673;SDS011;7937;48.090;16.212;2022-07-23T00:08:36;6.63;;;6.03;;
15673;SDS011;7937;48.090;16.212;2022-07-23T00:11:38;10.00;;;9.00;;
15673;SDS011;7937;48.090;16.212;2022-07-23T00:14:40;8.57;;;7.27;;
15673;SDS011;7937;48.090;16.212;2022-07-23T00:17:43;7.10;;;6.50;;
15673;SDS011;7937;48.090;16.212;2022-07-23T00:20:52;6.83;;;6.23;;
15673;SDS011;7937;48.090;16.212;2022-07-23T00:23:54;7.60;;;6.50;;
15673;SDS011;7937;48.090;16.212;2022-07-23T00:26:56;6.73;;;6.13;;
15673;SDS011;7937;48.090;16.212;2022-07-23T00:29:58;7.60;;;6.83;;
15673;SDS011;7937;48.090;16.212;2022-07-23T00:33:02;6.77;;;6.17;;
15673;SDS011;7937;48.090;16.212;2022-07-23T00:36:06;7.47;;;6.83;;
15673;SDS011;7937;48.090;16.212;2022-07-23T00:39:08;7.63;;;6.87;;
15673;SDS011;7937;48.090;16.212;2022-07-23T00:42:10;7.47;;;6.80;;
15673;SDS011;7937;48.090;16.212;2022-07-23T00:45:13;7.40;;;6.80;;
15673;SDS011;7937;48.090;16.212;2022-07-23T00:48:15;7.20;;;6.50;;
15673;SDS011;7937;48.090;16.212;2022-07-23T00:51:17;6.90;;;6.27;;
15673;SDS011;7937;48.090;16.212;2022-07-23T00:54:20;6.60;;;6.10;;
15673;SDS011;7937;48.090;16.212;2022-07-23T00:57:25;7.53;;;6.80;;
15673;SDS011;7937;48.090;16.212;2022-07-23T01:00:29;7.53;;;6.83;;
15673;SDS011;7937;48.090;16.212;2022-07-23T01:03:32;6.80;;;6.30;;
15673;SDS011;7937;48.090;16.212;2022-07-23T01:06:35;7.57;;;6.87;;
15673;SDS011;7937;48.090;16.212;2022-07-23T01:09:38;8.60;;;7.77;;
15673;SDS011;7937;48.090;16.212;2022-07-23T01:12:41;7.70;;;7.00;;
15673;SDS011;7937;48.090;16.212;2022-07-23T01:15:43;7.63;;;6.90;;
15673;SDS011;7937;48.090;16.212;2022-07-23T01:18:46;8.43;;;7.23;;
15673;SDS011;7937;48.090;16.212;2022-07-23T01:21:49;8.03;;;7.33;;
15673;SDS011;7937;48.090;16.212;2022-07-23T01:24:53;8.30;;;7.50;;
15673;SDS011;7937;48.090;16.212;2022-07-23T01:27:58;7.47;;;6.73;;
15673;SDS011;7937;48.090;16.212;2022-07-23T01:31:00;10.03;;;7.97;;
15673;SDS011;7937;48.090;16.212;2022-07-23T01:34:07;8.20;;;7.50;;
15673;SDS011;7937;48.090;16.212;2022-07-23T01:37:09;9.00;;;7.87;;
15673;SDS011;7937;48.090;16.212;2022-07-23T01:40:12;7.63;;;6.93;;
15673;SDS011;7937;48.090;16.212;2022-07-23T01:43:14;7.67;;;7.07;;
15673;SDS011;7937;48.090;16.212;2022-07-23T01:46:18;7.30;;;6.70;;
15673;SDS011;7937;48.090;16.212;2022-07-23T01:49:23;7.97;;;7.23;;
15673;SDS011;7937;48.090;16.212;2022-07-23T01:52:43;7.93;;;7.30;;
15673;SDS011;7937;48.090;16.212;2022-07-23T01:55:45;9.70;;;8.90;;
15673;SDS011;7937;48.090;16.212;2022-07-23T01:58:48;10.73;;;9.77;;
15673;SDS011;7937;48.090;16.212;2022-07-23T02:01:51;9.83;;;8.93;;
15673;SDS011;7937;48.090;16.212;2022-07-23T02:04:53;10.47;;;8.07;;
15673;SDS011;7937;48.090;16.212;2022-07-23T02:08:00;8.63;;;7.70;;
15673;SDS011;7937;48.090;16.212;2022-07-23T02:11:06;11.60;;;8.90;;
15673;SDS011;7937;48.090;16.212;2022-07-23T02:14:08;10.63;;;9.20;;
15673;SDS011;7937;48.090;16.212;2022-07-23T02:17:11;9.77;;;8.87;;
15673;SDS011;7937;48.090;16.212;2022-07-23T02:20:13;9.40;;;8.23;;
15673;SDS011;7937;48.090;16.212;2022-07-23T02:23:17;9.20;;;8.40;;
15673;SDS011;7937;48.090;16.212;2022-07-23T02:26:20;9.17;;;8.37;;
15673;SDS011;7937;48.090;16.212;2022-07-23T02:29:25;9.20;;;8.37;;
15673;SDS011;7937;48.090;16.212;2022-07-23T02:32:28;9.67;;;8.77;;
15673;SDS011;7937;48.090;16.212;2022-07-23T02:35:30;9.67;;;8.67;;
15673;SDS011;7937;48.090;16.212;2022-07-23T02:38:35;10.10;;;8.67;;
15673;SDS011;7937;48.090;16.212;2022-07-23T02:41:38;8.50;;;7.70;;
15673;SDS011;7937;48.090;16.212;2022-07-23T02:44:40;8.33;;;7.40;;
15673;SDS011;7937;48.090;16.212;2022-07-23T02:47:42;9.50;;;8.60;;
15673;SDS011;7937;48.090;16.212;2022-07-23T02:50:44;9.33;;;7.90;;
15673;SDS011;7937;48.090;16.212;2022-07-23T02:53:49;9.93;;;8.30;;
15673;SDS011;7937;48.090;16.212;2022-07-23T02:56:51;8.60;;;7.90;;
15673;SDS011;7937;48.090;16.212;2022-07-23T02:59:54;9.40;;;8.40;;
15673;SDS011;7937;48.090;16.212;2022-07-23T03:02:56;9.63;;;8.53;;
15673;SDS011;7937;48.090;16.212;2022-07-23T03:05:58;9.20;;;8.40;;
15673;SDS011;7937;48.090;16.212;2022-07-23T03:09:00;9.30;;;8.50;;
15673;SDS011;7937;48.090;16.212;2022-07-23T03:12:03;8.87;;;8.17;;
15673;SDS011;7937;48.090;16.212;2022-07-23T03:15:12;8.83;;;7.93;;
15673;SDS011;7937;48.090;16.212;2022-07-23T03:18:14;10.00;;;9.20;;
15673;SDS011;7937;48.090;16.212;2022-07-23T03:21:16;10.20;;;9.20;;
15673;SDS011;7937;48.090;16.212;2022-07-23T03:24:18;9.37;;;8.47;;
15673;SDS011;7937;48.090;16.212;2022-07-23T03:27:24;9.80;;;8.80;;
15673;SDS011;7937;48.090;16.212;2022-07-23T03:30:28;9.83;;;8.83;;
15673;SDS011;7937;48.090;16.212;2022-07-23T03:33:31;9.97;;;9.17;;
15673;SDS011;7937;48.090;16.212;2022-07-23T03:36:33;9.50;;;8.60;;
15673;SDS011;7937;48.090;16.212;2022-07-23T03:39:35;8.87;;;8.17;;
15673;SDS011;7937;48.090;16.212;2022-07-23T03:42:37;9.43;;;8.67;;
15673;SDS011;7937;48.090;16.212;2022-07-23T03:45:41;8.63;;;7.93;;
15673;SDS011;7937;48.090;16.212;2022-07-23T03:48:43;9.77;;;8.90;;
15673;SDS011;7937;48.090;16.212;2022-07-23T03:51:45;9.27;;;8.47;;
15673;SDS011;7937;48.090;16.212;2022-07-23T03:54:48;9.33;;;8.50;;
15673;SDS011;7937;48.090;16.212;2022-07-23T03:57:50;9.43;;;8.53;;
15673;SDS011;7937;48.090;16.212;2022-07-23T04:00:52;9.30;;;8.57;;
15673;SDS011;7937;48.090;16.212;2022-07-23T04:03:54;8.60;;;7.90;;
15673;SDS011;7937;48.090;16.212;2022-07-23T04:06:56;8.87;;;7.97;;
15673;SDS011;7937;48.090;16.212;2022-07-23T04:09:58;10.20;;;9.20;;
15673;SDS011;7937;48.090;16.212;2022-07-23T04:13:01;9.37;;;8.60;;
15673;SDS011;7937;48.090;16.212;2022-07-23T04:16:03;10.03;;;9.07;;
15673;SDS011;7937;48.090;16.212;2022-07-23T04:19:06;9.03;;;8.33;;
15673;SDS011;7937;48.090;16.212;2022-07-23T04:22:19;9.37;;;8.57;;
15673;SDS011;7937;48.090;16.212;2022-07-23T04:25:21;9.50;;;8.70;;
15673;SDS011;7937;48.090;16.212;2022-07-23T04:28:23;8.13;;;7.53;;
15673;SDS011;7937;48.090;16.212;2022-07-23T04:31:25;8.90;;;8.13;;
15673;SDS011;7937;48.090;16.212;2022-07-23T04:34:28;9.57;;;8.77;;
15673;SDS011;7937;48.090;16.212;2022-07-23T04:37:30;9.43;;;8.63;;
15673;SDS011;7937;48.090;16.212;2022-07-23T04:40:33;9.27;;;8.50;;
15673;SDS011;7937;48.090;16.212;2022-07-23T04:43:35;9.77;;;8.97;;
15673;SDS011;7937;48.090;16.212;2022-07-23T04:46:37;9.23;;;8.43;;
15673;SDS011;7937;48.090;16.212;2022-07-23T04:49:42;10.13;;;9.27;;
15673;SDS011;7937;48.090;16.212;2022-07-23T04:52:44;9.33;;;8.53;;
15673;SDS011;7937;48.090;16.212;2022-07-23T04:55:46;9.57;;;8.60;;
15673;SDS011;7937;48.090;16.212;2022-07-23T04:58:49;9.97;;;9.17;;
15673;SDS011;7937;48.090;16.212;2022-07-23T05:01:51;8.90;;;8.10;;
15673;SDS011;7937;48.090;16.212;2022-07-23T05:04:53;9.53;;;8.63;;
15673;SDS011;7937;48.090;16.212;2022-07-23T05:07:55;9.00;;;8.20;;
15673;SDS011;7937;48.090;16.212;2022-07-23T05:10:58;8.53;;;7.73;;
15673;SDS011;7937;48.090;16.212;2022-07-23T05:14:02;9.63;;;8.67;;
15673;SDS011;7937;48.090;16.212;2022-07-23T05:17:04;9.17;;;8.37;;
15673;SDS011;7937;48.090;16.212;2022-07-23T05:20:06;8.37;;;7.67;;
15673;SDS011;7937;48.090;16.212;2022-07-23T05:23:09;7.53;;;6.93;;
15673;SDS011;7937;48.090;16.212;2022-07-23T05:26:11;8.00;;;7.30;;
15673;SDS011;7937;48.090;16.212;2022-07-23T05:29:13;7.17;;;6.57;;
15673;SDS011;7937;48.090;16.212;2022-07-23T05:32:16;6.10;;;5.50;;
15673;SDS011;7937;48.090;16.212;2022-07-23T05:35:26;5.80;;;5.30;;
15673;SDS011;7937;48.090;16.212;2022-07-23T05:38:49;8.93;;;5.20;;
15673;SDS011;7937;48.090;16.212;2022-07-23T05:41:52;6.07;;;5.57;;
15673;SDS011;7937;48.090;16.212;2022-07-23T05:44:54;4.93;;;4.60;;
15673;SDS011;7937;48.090;16.212;2022-07-23T05:47:56;7.05;;;5.40;;
15673;SDS011;7937;48.090;16.212;2022-07-23T05:51:04;5.30;;;4.90;;
15673;SDS011;7937;48.090;16.212;2022-07-23T05:54:09;5.68;;;5.10;;
15673;SDS011;7937;48.090;16.212;2022-07-23T05:57:13;5.38;;;4.95;;
15673;SDS011;7937;48.090;16.212;2022-07-23T06:00:15;5.70;;;5.30;;
15673;SDS011;7937;48.090;16.212;2022-07-23T06:03:20;5.90;;;5.30;;
15673;SDS011;7937;48.090;16.212;2022-07-23T06:06:22;5.50;;;5.00;;
15673;SDS011;7937;48.090;16.212;2022-07-23T06:09:24;6.00;;;5.50;;
15673;SDS011;7937;48.090;16.212;2022-07-23T06:12:27;7.22;;;6.38;;
15673;SDS011;7937;48.090;16.212;2022-07-23T06:15:29;7.25;;;6.22;;
15673;SDS011;7937;48.090;16.212;2022-07-23T06:18:32;6.05;;;5.55;;
15673;SDS011;7937;48.090;16.212;2022-07-23T06:21:34;6.22;;;5.80;;
15673;SDS011;7937;48.090;16.212;2022-07-23T06:24:51;6.72;;;6.10;;
15673;SDS011;7937;48.090;16.212;2022-07-23T06:27:55;6.32;;;5.72;;
15673;SDS011;7937;48.090;16.212;2022-07-23T06:30:57;6.43;;;5.88;;
15673;SDS011;7937;48.090;16.212;2022-07-23T06:33:59;6.60;;;6.10;;
15673;SDS011;7937;48.090;16.212;2022-07-23T06:37:02;5.80;;;5.30;;
15673;SDS011;7937;48.090;16.212;2022-07-23T06:40:04;7.75;;;5.80;;
15673;SDS011;7937;48.090;16.212;2022-07-23T06:43:09;5.88;;;5.32;;
15673;SDS011;7937;48.090;16.212;2022-07-23T06:46:12;6.93;;;5.78;;
15673;SDS011;7937;48.090;16.212;2022-07-23T06:49:14;5.90;;;5.40;;
15673;SDS011;7937;48.090;16.212;2022-07-23T06:52:16;6.20;;;5.60;;
15673;SDS011;7937;48.090;16.212;2022-07-23T06:55:18;5.13;;;4.70;;
15673;SDS011;7937;48.090;16.212;2022-07-23T06:58:20;5.50;;;5.03;;
15673;SDS011;7937;48.090;16.212;2022-07-23T07:01:23;5.57;;;5.07;;
15673;SDS011;7937;48.090;16.212;2022-07-23T07:04:25;5.75;;;5.20;;
15673;SDS011;7937;48.090;16.212;2022-07-23T07:07:27;5.05;;;4.57;;
15673;SDS011;7937;48.090;16.212;2022-07-23T07:10:29;4.65;;;4.25;;
15673;SDS011;7937;48.090;16.212;2022-07-23T07:13:31;5.35;;;4.82;;
15673;SDS011;7937;48.090;16.212;2022-07-23T07:16:33;6.38;;;4.05;;
15673;SDS011;7937;48.090;16.212;2022-07-23T07:19:36;4.28;;;3.88;;
15673;SDS011;7937;48.090;16.212;2022-07-23T07:22:38;4.50;;;4.10;;
15673;SDS011;7937;48.090;16.212;2022-07-23T08:28:52;4.70;;;4.30;;
15673;SDS011;7937;48.090;16.212;2022-07-23T08:31:54;4.80;;;4.40;;
15673;SDS011;7937;48.090;16.212;2022-07-23T08:34:56;4.65;;;4.22;;
15673;SDS011;7937;48.090;16.212;2022-07-23T08:37:59;4.80;;;4.40;;
15673;SDS011;7937;48.090;16.212;2022-07-23T08:41:03;4.88;;;4.47;;
15673;SDS011;7937;48.090;16.212;2022-07-23T08:44:07;5.50;;;5.00;;
15673;SDS011;7937;48.090;16.212;2022-07-23T08:47:09;5.88;;;4.65;;
15673;SDS011;7937;48.090;16.212;2022-07-23T08:50:13;4.97;;;4.53;;
15673;SDS011;7937;48.090;16.212;2022-07-23T08:53:16;4.55;;;4.15;;
15673;SDS011;7937;48.090;16.212;2022-07-23T08:56:19;4.55;;;4.00;;
15673;SDS011;7937;48.090;16.212;2022-07-23T08:59:21;4.60;;;4.18;;
15673;SDS011;7937;48.090;16.212;2022-07-23T09:02:23;5.72;;;4.72;;
15673;SDS011;7937;48.090;16.212;2022-07-23T09:05:25;4.70;;;4.30;;
15673;SDS011;7937;48.090;16.212;2022-07-23T09:08:34;4.38;;;3.97;;
15673;SDS011;7937;48.090;16.212;2022-07-23T09:11:39;4.75;;;4.20;;
15673;SDS011;7937;48.090;16.212;2022-07-23T09:14:48;5.15;;;4.43;;
15673;SDS011;7937;48.090;16.212;2022-07-23T09:17:50;5.15;;;4.22;;
15673;SDS011;7937;48.090;16.212;2022-07-23T09:21:04;4.50;;;4.20;;
15673;SDS011;7937;48.090;16.212;2022-07-23T09:24:08;5.15;;;4.75;;
15673;SDS011;7937;48.090;16.212;2022-07-23T09:27:12;5.50;;;4.60;;
15673;SDS011;7937;48.090;16.212;2022-07-23T09:30:15;4.38;;;3.97;;
15673;SDS011;7937;48.090;16.212;2022-07-23T09:33:17;4.60;;;4.20;;
15673;SDS011;7937;48.090;16.212;2022-07-23T09:36:31;4.82;;;4.43;;
15673;SDS011;7937;48.090;16.212;2022-07-23T09:39:33;5.05;;;4.65;;
15673;SDS011;7937;48.090;16.212;2022-07-23T09:42:35;4.55;;;4.22;;
15673;SDS011;7937;48.090;16.212;2022-07-23T09:45:38;4.55;;;4.25;;
15673;SDS011;7937;48.090;16.212;2022-07-23T09:48:41;5.05;;;4.55;;
15673;SDS011;7937;48.090;16.212;2022-07-23T09:51:54;4.75;;;4.45;;
15673;SDS011;7937;48.090;16.212;2022-07-23T09:54:59;5.13;;;4.72;;
15673;SDS011;7937;48.090;16.212;2022-07-23T09:58:06;5.20;;;4.78;;
15673;SDS011;7937;48.090;16.212;2022-07-23T10:01:12;4.97;;;4.57;;
15673;SDS011;7937;48.090;16.212;2022-07-23T10:04:15;4.80;;;4.47;;
15673;SDS011;7937;48.090;16.212;2022-07-23T10:07:34;4.63;;;4.28;;
15673;SDS011;7937;48.090;16.212;2022-07-23T10:11:00;5.18;;;4.75;;
15673;SDS011;7937;48.090;16.212;2022-07-23T10:14:25;5.95;;;4.95;;
15673;SDS011;7937;48.090;16.212;2022-07-23T10:17:31;5.70;;;5.20;;
15673;SDS011;7937;48.090;16.212;2022-07-23T10:20:34;5.13;;;4.72;;
15673;SDS011;7937;48.090;16.212;2022-07-23T10:23:44;4.70;;;4.30;;
15673;SDS011;7937;48.090;16.212;2022-07-23T10:37:25;5.63;;;5.22;;
15673;SDS011;7937;48.090;16.212;2022-07-23T10:40:34;5.60;;;5.07;;
15673;SDS011;7937;48.090;16.212;2022-07-23T10:43:37;9.18;;;5.20;;
15673;SDS011;7937;48.090;16.212;2022-07-23T10:50:29;5.93;;;5.45;;
15673;SDS011;7937;48.090;16.212;2022-07-23T11:00:08;4.68;;;4.30;;
15673;SDS011;7937;48.090;16.212;2022-07-23T11:03:47;5.70;;;5.00;;
15673;SDS011;7937;48.090;16.212;2022-07-23T11:09:50;5.47;;;5.07;;
15673;SDS011;7937;48.090;16.212;2022-07-23T11:12:52;6.70;;;5.13;;
15673;SDS011;7937;48.090;16.212;2022-07-23T11:19:06;5.70;;;5.20;;
15673;SDS011;7937;48.090;16.212;2022-07-23T11:22:09;6.40;;;5.15;;
15673;SDS011;7937;48.090;16.212;2022-07-23T11:25:41;5.82;;;5.32;;
15673;SDS011;7937;48.090;16.212;2022-07-23T11:28:43;5.30;;;4.88;;
15673;SDS011;7937;48.090;16.212;2022-07-23T11:31:52;5.93;;;5.43;;
15673;SDS011;7937;48.090;16.212;2022-07-23T11:34:54;6.63;;;6.03;;
15673;SDS011;7937;48.090;16.212;2022-07-23T11:38:06;6.10;;;5.30;;
15673;SDS011;7937;48.090;16.212;2022-07-23T11:41:22;6.25;;;5.68;;
15673;SDS011;7937;48.090;16.212;2022-07-23T11:44:32;7.13;;;5.50;;
15673;SDS011;7937;48.090;16.212;2022-07-23T11:47:35;5.95;;;5.45;;
15673;SDS011;7937;48.090;16.212;2022-07-23T11:50:37;6.38;;;5.63;;
15673;SDS011;7937;48.090;16.212;2022-07-23T11:53:40;5.93;;;5.47;;
15673;SDS011;7937;48.090;16.212;2022-07-23T11:56:57;5.57;;;5.07;;
15673;SDS011;7937;48.090;16.212;2022-07-23T12:00:02;6.72;;;6.10;;
15673;SDS011;7937;48.090;16.212;2022-07-23T12:03:15;6.10;;;5.50;;
15673;SDS011;7937;48.090;16.212;2022-07-23T12:06:17;6.78;;;5.90;;
15673;SDS011;7937;48.090;16.212;2022-07-23T12:09:20;5.47;;;4.97;;
15673;SDS011;7937;48.090;16.212;2022-07-23T12:12:23;5.82;;;5.22;;
15673;SDS011;7937;48.090;16.212;2022-07-23T12:15:26;5.47;;;4.90;;
15673;SDS011;7937;48.090;16.212;2022-07-23T12:18:40;5.38;;;4.60;;
15673;SDS011;7937;48.090;16.212;2022-07-23T12:21:43;5.18;;;4.72;;
15673;SDS011;7937;48.090;16.212;2022-07-23T12:24:54;5.25;;;4.68;;
15673;SDS011;7937;48.090;16.212;2022-07-23T12:28:05;5.22;;;4.43;;
15673;SDS011;7937;48.090;16.212;2022-07-23T12:31:08;5.20;;;4.18;;
15673;SDS011;7937;48.090;16.212;2022-07-23T12:34:14;4.65;;;4.28;;
15673;SDS011;7937;48.090;16.212;2022-07-23T12:37:31;4.22;;;3.70;;
15673;SDS011;7937;48.090;16.212;2022-07-23T12:40:43;4.10;;;3.80;;
15673;SDS011;7937;48.090;16.212;2022-07-23T12:43:47;3.72;;;3.42;;
15673;SDS011;7937;48.090;16.212;2022-07-23T12:46:50;3.58;;;3.30;;
15673;SDS011;7937;48.090;16.212;2022-07-23T12:49:53;4.47;;;3.45;;
15673;SDS011;7937;48.090;16.212;2022-07-23T12:53:09;4.28;;;3.08;;
15673;SDS011;7937;48.090;16.212;2022-07-23T12:56:31;3.30;;;3.00;;
15673;SDS011;7937;48.090;16.212;2022-07-23T12:59:35;3.20;;;2.75;;
15673;SDS011;7937;48.090;16.212;2022-07-23T13:02:45;2.75;;;2.55;;
15673;SDS011;7937;48.090;16.212;2022-07-23T13:05:48;3.67;;;2.45;;
15673;SDS011;7937;48.090;16.212;2022-07-23T13:08:50;3.17;;;2.88;;
15673;SDS011;7937;48.090;16.212;2022-07-23T13:11:53;2.60;;;2.40;;
15673;SDS011;7937;48.090;16.212;2022-07-23T13:14:57;2.80;;;2.60;;
15673;SDS011;7937;48.090;16.212;2022-07-23T13:18:00;2.60;;;2.40;;
15673;SDS011;7937;48.090;16.212;2022-07-23T13:21:03;11.70;;;2.72;;
15673;SDS011;7937;48.090;16.212;2022-07-23T13:24:07;2.92;;;2.72;;
15673;SDS011;7937;48.090;16.212;2022-07-23T13:27:11;2.70;;;2.25;;
15673;SDS011;7937;48.090;16.212;2022-07-23T13:30:14;2.50;;;2.20;;
15673;SDS011;7937;48.090;16.212;2022-07-23T13:33:20;2.63;;;2.33;;
15673;SDS011;7937;48.090;16.212;2022-07-23T13:36:23;2.42;;;1.80;;
15673;SDS011;7937;48.090;16.212;2022-07-23T13:39:25;4.18;;;2.28;;
15673;SDS011;7937;48.090;16.212;2022-07-23T13:42:29;3.97;;;2.28;;
15673;SDS011;7937;48.090;16.212;2022-07-23T13:45:32;2.47;;;2.13;;
15673;SDS011;7937;48.090;16.212;2022-07-23T13:48:35;2.63;;;2.40;;
15673;SDS011;7937;48.090;16.212;2022-07-23T13:51:37;2.83;;;2.58;;
15673;SDS011;7937;48.090;16.212;2022-07-23T13:54:40;2.50;;;2.30;;
15673;SDS011;7937;48.090;16.212;2022-07-23T13:57:42;2.70;;;2.50;;
15673;SDS011;7937;48.090;16.212;2022-07-23T14:00:45;2.65;;;2.10;;
15673;SDS011;7937;48.090;16.212;2022-07-23T14:03:53;13.27;;;3.55;;
15673;SDS011;7937;48.090;16.212;2022-07-23T14:06:57;2.85;;;2.40;;
15673;SDS011;7937;48.090;16.212;2022-07-23T14:09:59;4.07;;;2.30;;
15673;SDS011;7937;48.090;16.212;2022-07-23T14:13:03;4.00;;;2.85;;
15673;SDS011;7937;48.090;16.212;2022-07-23T14:16:06;3.15;;;2.85;;
15673;SDS011;7937;48.090;16.212;2022-07-23T14:19:10;2.63;;;2.42;;
15673;SDS011;7937;48.090;16.212;2022-07-23T14:22:13;3.58;;;3.03;;
15673;SDS011;7937;48.090;16.212;2022-07-23T14:25:16;3.10;;;2.90;;
15673;SDS011;7937;48.090;16.212;2022-07-23T14:28:19;3.55;;;3.25;;
15673;SDS011;7937;48.090;16.212;2022-07-23T14:31:21;4.07;;;2.55;;
15673;SDS011;7937;48.090;16.212;2022-07-23T14:34:23;4.53;;;3.30;;
15673;SDS011;7937;48.090;16.212;2022-07-23T14:37:29;3.40;;;3.10;;
15673;SDS011;7937;48.090;16.212;2022-07-23T14:40:32;3.10;;;2.90;;
15673;SDS011;7937;48.090;16.212;2022-07-23T14:43:36;3.65;;;3.35;;
15673;SDS011;7937;48.090;16.212;2022-07-23T14:46:39;6.57;;;3.28;;
15673;SDS011;7937;48.090;16.212;2022-07-23T14:49:41;4.20;;;3.28;;
15673;SDS011;7937;48.090;16.212;2022-07-23T14:52:49;3.65;;;3.25;;
15673;SDS011;7937;48.090;16.212;2022-07-23T14:55:51;3.63;;;3.33;;
15673;SDS011;7937;48.090;16.212;2022-07-23T14:58:55;4.05;;;3.40;;
15673;SDS011;7937;48.090;16.212;2022-07-23T15:01:58;3.38;;;3.10;;
15673;SDS011;7937;48.090;16.212;2022-07-23T15:05:01;5.60;;;3.20;;
15673;SDS011;7937;48.090;16.212;2022-07-23T15:08:08;4.32;;;2.85;;
15673;SDS011;7937;48.090;16.212;2022-07-23T15:11:10;3.40;;;3.13;;
15673;SDS011;7937;48.090;16.212;2022-07-23T15:14:13;3.13;;;2.92;;
15673;SDS011;7937;48.090;16.212;2022-07-23T15:17:25;3.30;;;3.00;;
15673;SDS011;7937;48.090;16.212;2022-07-23T15:20:27;3.35;;;3.05;;
15673;SDS011;7937;48.090;16.212;2022-07-23T15:23:36;3.47;;;3.17;;
15673;SDS011;7937;48.090;16.212;2022-07-23T15:26:41;3.70;;;3.15;;
15673;SDS011;7937;48.090;16.212;2022-07-23T15:29:44;2.95;;;2.50;;
15673;SDS011;7937;48.090;16.212;2022-07-23T15:32:46;3.42;;;3.17;;
15673;SDS011;7937;48.090;16.212;2022-07-23T15:35:48;5.68;;;2.95;;
15673;SDS011;7937;48.090;16.212;2022-07-23T15:38:51;4.82;;;3.20;;
15673;SDS011;7937;48.090;16.212;2022-07-23T15:41:53;4.38;;;2.83;;
15673;SDS011;7937;48.090;16.212;2022-07-23T15:44:55;3.80;;;3.50;;
15673;SDS011;7937;48.090;16.212;2022-07-23T15:47:57;6.75;;;3.00;;
15673;SDS011;7937;48.090;16.212;2022-07-23T15:51:00;3.35;;;3.15;;
15673;SDS011;7937;48.090;16.212;2022-07-23T15:54:03;3.35;;;3.05;;
15673;SDS011;7937;48.090;16.212;2022-07-23T15:57:06;3.50;;;2.85;;
15673;SDS011;7937;48.090;16.212;2022-07-23T16:00:09;2.90;;;2.70;;
15673;SDS011;7937;48.090;16.212;2022-07-23T16:03:12;3.40;;;3.10;;
15673;SDS011;7937;48.090;16.212;2022-07-23T16:06:15;3.38;;;3.08;;
15673;SDS011;7937;48.090;16.212;2022-07-23T16:09:18;3.45;;;3.15;;
15673;SDS011;7937;48.090;16.212;2022-07-23T16:12:21;3.47;;;3.17;;
15673;SDS011;7937;48.090;16.212;2022-07-23T16:15:23;2.95;;;2.72;;
15673;SDS011;7937;48.090;16.212;2022-07-23T16:18:25;4.05;;;3.03;;
15673;SDS011;7937;48.090;16.212;2022-07-23T16:21:28;3.03;;;2.83;;
15673;SDS011;7937;48.090;16.212;2022-07-23T16:24:30;3.22;;;2.92;;
15673;SDS011;7937;48.090;16.212;2022-07-23T17:27:04;3.30;;;3.00;;
15673;SDS011;7937;48.090;16.212;2022-07-23T17:30:07;3.72;;;3.42;;
15673;SDS011;7937;48.090;16.212;2022-07-23T17:33:10;3.30;;;3.00;;
15673;SDS011;7937;48.090;16.212;2022-07-23T17:36:12;3.90;;;3.60;;
15673;SDS011;7937;48.090;16.212;2022-07-23T17:39:15;3.50;;;3.20;;
15673;SDS011;7937;48.090;16.212;2022-07-23T17:42:17;3.70;;;3.00;;
15673;SDS011;7937;48.090;16.212;2022-07-23T17:45:19;4.95;;;4.45;;
15673;SDS011;7937;48.090;16.212;2022-07-23T17:48:22;8.20;;;6.30;;
15673;SDS011;7937;48.090;16.212;2022-07-23T17:51:24;5.82;;;5.22;;
15673;SDS011;7937;48.090;16.212;2022-07-23T17:54:26;8.05;;;5.10;;
15673;SDS011;7937;48.090;16.212;2022-07-23T17:57:28;4.78;;;4.07;;
15673;SDS011;7937;48.090;16.212;2022-07-23T18:00:32;4.65;;;3.95;;
15673;SDS011;7937;48.090;16.212;2022-07-23T18:03:37;4.07;;;3.70;;
15673;SDS011;7937;48.090;16.212;2022-07-23T18:06:40;3.92;;;3.53;;
15673;SDS011;7937;48.090;16.212;2022-07-23T18:09:42;4.00;;;3.22;;
15673;SDS011;7937;48.090;16.212;2022-07-23T18:12:45;4.20;;;3.85;;
15673;SDS011;7937;48.090;16.212;2022-07-23T18:15:47;3.90;;;3.60;;
15673;SDS011;7937;48.090;16.212;2022-07-23T18:18:49;4.80;;;3.72;;
15673;SDS011;7937;48.090;16.212;2022-07-23T18:21:51;3.60;;;3.30;;
15673;SDS011;7937;48.090;16.212;2022-07-23T18:24:54;3.65;;;3.13;;
15673;SDS011;7937;48.090;16.212;2022-07-23T18:27:56;3.47;;;3.17;;
15673;SDS011;7937;48.090;16.212;2022-07-23T18:30:58;4.25;;;3.85;;
15673;SDS011;7937;48.090;16.212;2022-07-23T18:34:00;3.60;;;3.40;;
15673;SDS011;7937;48.090;16.212;2022-07-23T18:37:02;5.75;;;3.80;;
15673;SDS011;7937;48.090;16.212;2022-07-23T18:40:06;3.78;;;3.40;;
15673;SDS011;7937;48.090;16.212;2022-07-23T18:43:11;3.72;;;3.42;;
15673;SDS011;7937;48.090;16.212;2022-07-23T18:46:13;7.50;;;4.07;;
15673;SDS011;7937;48.090;16.212;2022-07-23T18:49:15;3.97;;;3.67;;
15673;SDS011;7937;48.090;16.212;2022-07-23T18:52:18;4.03;;;3.72;;
15673;SDS011;7937;48.090;16.212;2022-07-23T18:55:21;4.70;;;4.30;;
15673;SDS011;7937;48.090;16.212;2022-07-23T18:58:24;3.80;;;3.50;;
15673;SDS011;7937;48.090;16.212;2022-07-23T19:01:26;6.57;;;3.53;;
15673;SDS011;7937;48.090;16.212;2022-07-23T19:04:31;10.40;;;4.20;;
15673;SDS011;7937;48.090;16.212;2022-07-23T19:07:34;5.32;;;4.82;;
15673;SDS011;7937;48.090;16.212;2022-07-23T19:10:36;4.60;;;4.20;;
15673;SDS011;7937;48.090;16.212;2022-07-23T19:13:39;4.28;;;3.70;;
15673;SDS011;7937;48.090;16.212;2022-07-23T19:16:42;4.57;;;4.22;;
15673;SDS011;7937;48.090;16.212;2022-07-23T19:19:44;4.68;;;4.28;;
15673;SDS011;7937;48.090;16.212;2022-07-23T19:22:47;5.25;;;4.85;;
15673;SDS011;7937;48.090;16.212;2022-07-23T19:25:49;5.32;;;4.35;;
15673;SDS011;7937;48.090;16.212;2022-07-23T19:28:51;6.63;;;5.18;;
15673;SDS011;7937;48.090;16.212;2022-07-23T19:31:55;5.38;;;4.18;;
15673;SDS011;7937;48.090;16.212;2022-07-23T19:34:57;4.07;;;3.78;;
15673;SDS011;7937;48.090;16.212;2022-07-23T19:37:59;4.18;;;3.72;;
15673;SDS011;7937;48.090;16.212;2022-07-23T19:41:07;4.18;;;3.78;;
15673;SDS011;7937;48.090;16.212;2022-07-23T19:44:10;3.90;;;3.58;;
15673;SDS011;7937;48.090;16.212;2022-07-23T19:47:13;3.30;;;3.03;;
15673;SDS011;7937;48.090;16.212;2022-07-23T19:50:15;3.33;;;3.13;;
15673;SDS011;7937;48.090;16.212;2022-07-23T19:53:18;3.70;;;3.35;;
15673;SDS011;7937;48.090;16.212;2022-07-23T19:56:20;4.75;;;3.67;;
15673;SDS011;7937;48.090;16.212;2022-07-23T19:59:31;3.40;;;3.10;;
15673;SDS011;7937;48.090;16.212;2022-07-23T20:02:34;3.25;;;2.95;;
15673;SDS011;7937;48.090;16.212;2022-07-23T20:05:36;3.65;;;3.35;;
15673;SDS011;7937;48.090;16.212;2022-07-23T20:08:39;4.10;;;3.70;;
15673;SDS011;7937;48.090;16.212;2022-07-23T20:11:41;5.55;;;3.15;;
15673;SDS011;7937;48.090;16.212;2022-07-23T20:14:44;4.43;;;3.75;;
15673;SDS011;7937;48.090;16.212;2022-07-23T20:17:47;5.50;;;3.83;;
15673;SDS011;7937;48.090;16.212;2022-07-23T20:20:49;3.97;;;3.40;;
15673;SDS011;7937;48.090;16.212;2022-07-23T20:23:52;3.60;;;3.20;;
15673;SDS011;7937;48.090;16.212;2022-07-23T20:26:54;3.40;;;3.10;;
15673;SDS011;7937;48.090;16.212;2022-07-23T20:29:57;4.03;;;3.60;;
15673;SDS011;7937;48.090;16.212;2022-07-23T20:32:59;4.07;;;3.42;;
15673;SDS011;7937;48.090;16.212;2022-07-23T20:36:01;3.53;;;3.22;;
15673;SDS011;7937;48.090;16.212;2022-07-23T20:39:05;5.60;;;3.35;;
15673;SDS011;7937;48.090;16.212;2022-07-23T20:42:10;3.88;;;3.40;;
15673;SDS011;7937;48.090;16.212;2022-07-23T20:45:13;3.53;;;3.17;;
15673;SDS011;7937;48.090;16.212;2022-07-23T20:48:16;4.82;;;3.53;;
15673;SDS011;7937;48.090;16.212;2022-07-23T20:51:29;4.80;;;3.65;;
15673;SDS011;7937;48.090;16.212;2022-07-23T20:54:33;3.88;;;3.47;;
15673;SDS011;7937;48.090;16.212;2022-07-23T20:57:35;4.88;;;3.58;;
15673;SDS011;7937;48.090;16.212;2022-07-23T21:00:37;3.67;;;3.20;;